createdAt,value
2024-02-02T00:00:43.608Z,86.85
2024-02-02T00:01:43.519Z,86.88
2024-02-02T00:02:43.494Z,87.09
2024-02-02T00:03:43.564Z,87.30
2024-02-02T00:04:43.477Z,87.61
2024-02-02T00:05:43.496Z,87.92
2024-02-02T00:06:43.511Z,88.38
2024-02-02T00:07:43.447Z,88.69
2024-02-02T00:08:43.434Z,88.90
2024-02-02T00:09:43.467Z,89.21
2024-02-02T00:10:43.442Z,89.25
2024-02-02T00:11:43.418Z,89.56
2024-02-02T00:12:44.266Z,89.77
2024-02-02T00:13:43.379Z,89.92
2024-02-02T00:14:43.394Z,90.23
2024-02-02T00:15:43.388Z,90.44
2024-02-02T00:16:43.363Z,90.64
2024-02-02T00:17:43.391Z,90.85
2024-02-02T00:18:43.484Z,91.00
2024-02-02T00:19:43.386Z,91.31
2024-02-02T00:20:43.320Z,91.41
2024-02-02T00:21:43.325Z,91.72
2024-02-02T00:22:43.304Z,91.72
2024-02-02T00:23:43.292Z,91.93
2024-02-02T00:24:43.281Z,92.03
2024-02-02T00:25:43.319Z,92.03
2024-02-02T00:26:43.295Z,92.14
2024-02-02T00:27:43.258Z,92.14
2024-02-02T00:28:43.233Z,92.24
2024-02-02T00:29:43.217Z,92.24
2024-02-02T00:30:43.252Z,92.24
2024-02-02T00:31:43.250Z,92.35
2024-02-02T00:32:43.370Z,92.45
2024-02-02T00:33:43.248Z,92.45
2024-02-02T00:34:43.446Z,92.35
2024-02-02T00:35:43.155Z,92.35
2024-02-02T00:36:43.189Z,92.35
2024-02-02T00:37:43.157Z,92.45
2024-02-02T00:38:43.172Z,92.45
2024-02-02T00:39:43.141Z,92.35
2024-02-02T00:40:43.105Z,92.35
2024-02-02T00:41:43.110Z,92.45
2024-02-02T00:42:43.078Z,92.55
2024-02-02T00:43:43.072Z,92.66
2024-02-02T00:44:43.096Z,92.66
2024-02-02T00:45:43.095Z,92.66
2024-02-02T00:46:43.047Z,92.55
2024-02-02T00:47:43.053Z,92.55
2024-02-02T00:48:43.141Z,92.55
2024-02-02T00:49:43.156Z,92.66
2024-02-02T00:50:43.011Z,92.66
2024-02-02T00:51:43.013Z,92.76
2024-02-02T00:52:42.995Z,92.76
2024-02-02T00:53:42.971Z,92.86
2024-02-02T00:54:42.966Z,92.86
2024-02-02T00:55:42.973Z,92.91
2024-02-02T00:56:42.984Z,93.01
2024-02-02T00:57:42.981Z,93.07
2024-02-02T00:58:42.929Z,93.12
2024-02-02T00:59:43.077Z,93.07
2024-02-02T01:00:42.969Z,93.07
2024-02-02T01:01:42.882Z,92.97
2024-02-02T01:02:42.892Z,93.12
2024-02-02T01:03:42.926Z,93.18
2024-02-02T01:04:42.926Z,93.23
2024-02-02T01:05:42.885Z,93.33
2024-02-02T01:06:42.899Z,93.43
2024-02-02T01:07:42.828Z,93.43
2024-02-02T01:08:42.808Z,93.43
2024-02-02T01:09:42.809Z,93.54
2024-02-02T01:10:42.809Z,93.43
2024-02-02T01:11:42.799Z,93.39
2024-02-02T01:12:42.768Z,93.39
2024-02-02T01:13:42.771Z,93.39
2024-02-02T01:14:42.737Z,93.39
2024-02-02T01:15:42.781Z,93.49
2024-02-02T01:16:42.953Z,93.39
2024-02-02T01:17:42.728Z,93.29
2024-02-02T01:18:42.798Z,93.18
2024-02-02T01:19:42.725Z,93.18
2024-02-02T01:20:42.717Z,93.18
2024-02-02T01:21:42.670Z,93.18
2024-02-02T01:22:42.661Z,93.18
2024-02-02T01:23:42.649Z,93.18
2024-02-02T01:24:42.643Z,93.07
2024-02-02T01:25:42.636Z,93.07
2024-02-02T01:26:42.597Z,93.18
2024-02-02T01:27:42.621Z,93.07
2024-02-02T01:28:42.580Z,92.97
2024-02-02T01:29:42.696Z,92.97
2024-02-02T01:30:42.580Z,92.82
2024-02-02T01:31:42.560Z,92.86
2024-02-02T01:32:42.647Z,92.72
2024-02-02T01:33:42.744Z,92.61
2024-02-02T01:34:42.753Z,92.51
2024-02-02T01:35:42.551Z,92.51
2024-02-02T01:36:42.499Z,92.41
2024-02-02T01:37:42.512Z,92.41
2024-02-02T01:38:42.498Z,92.41
2024-02-02T01:39:42.527Z,92.30
2024-02-02T01:40:42.516Z,92.20
2024-02-02T01:41:42.446Z,92.10
2024-02-02T01:42:42.440Z,92.10
2024-02-02T01:43:43.271Z,92.10
2024-02-02T01:44:42.416Z,92.10
2024-02-02T01:45:42.441Z,91.95
2024-02-02T01:46:42.402Z,91.74
2024-02-02T01:47:42.429Z,91.64
2024-02-02T01:48:42.502Z,91.53
2024-02-02T01:49:42.448Z,91.43
2024-02-02T01:50:42.432Z,91.43
2024-02-02T01:51:42.379Z,91.22
2024-02-02T01:52:42.326Z,91.02
2024-02-02T01:53:42.340Z,91.02
2024-02-02T01:54:42.334Z,90.87
2024-02-02T01:55:42.317Z,90.77
2024-02-02T01:56:42.326Z,90.77
2024-02-02T01:57:42.355Z,90.66
2024-02-02T01:58:42.854Z,90.66
2024-02-02T01:59:42.260Z,90.66
2024-02-02T02:00:42.324Z,90.77
2024-02-02T02:01:42.262Z,90.77
2024-02-02T02:02:42.221Z,90.66
2024-02-02T02:03:42.344Z,90.66
2024-02-02T02:04:42.277Z,90.66
2024-02-02T02:05:42.258Z,90.66
2024-02-02T02:06:42.230Z,90.66
2024-02-02T02:07:42.176Z,90.66
2024-02-02T02:08:42.806Z,90.56
2024-02-02T02:09:42.167Z,90.56
2024-02-02T02:10:42.179Z,90.56
2024-02-02T02:11:42.143Z,90.56
2024-02-02T02:12:42.151Z,90.35
2024-02-02T02:13:42.115Z,90.35
2024-02-02T02:14:42.377Z,90.14
2024-02-02T02:15:42.151Z,90.14
2024-02-02T02:16:42.088Z,90.25
2024-02-02T02:17:42.133Z,90.14
2024-02-02T02:18:48.164Z,90.14
2024-02-02T02:19:42.160Z,90.10
2024-02-02T02:20:42.079Z,90.04
2024-02-02T02:21:42.049Z,90.00
2024-02-02T02:22:42.025Z,90.10
2024-02-02T02:23:42.069Z,90.10
2024-02-02T02:24:42.019Z,90.00
2024-02-02T02:25:42.024Z,89.89
2024-02-02T02:26:42.016Z,89.89
2024-02-02T02:27:42.013Z,89.69
2024-02-02T02:28:42.769Z,89.69
2024-02-02T02:29:41.978Z,89.69
2024-02-02T02:30:41.971Z,89.69
2024-02-02T02:31:42.068Z,89.69
2024-02-02T02:32:41.991Z,89.69
2024-02-02T02:33:42.849Z,89.69
2024-02-02T02:34:41.947Z,89.69
2024-02-02T02:35:41.890Z,89.69
2024-02-02T02:36:42.737Z,89.79
2024-02-02T02:37:41.887Z,89.69
2024-02-02T02:38:41.897Z,89.79
2024-02-02T02:39:41.882Z,89.79
2024-02-02T02:40:42.128Z,89.79
2024-02-02T02:41:41.840Z,89.79
2024-02-02T02:42:41.806Z,89.79
2024-02-02T02:43:41.817Z,89.79
2024-02-02T02:44:41.821Z,89.79
2024-02-02T02:45:41.869Z,89.79
2024-02-02T02:46:41.792Z,89.89
2024-02-02T02:47:41.836Z,89.89
2024-02-02T02:48:42.051Z,89.89
2024-02-02T02:49:41.981Z,90.00
2024-02-02T02:50:41.746Z,90.00
2024-02-02T02:51:41.764Z,90.10
2024-02-02T02:52:41.725Z,90.20
2024-02-02T02:53:41.724Z,90.31
2024-02-02T02:54:41.710Z,90.20
2024-02-02T02:55:41.739Z,90.31
2024-02-02T02:56:41.687Z,90.31
2024-02-02T02:57:41.725Z,90.31
2024-02-02T02:58:41.710Z,90.41
2024-02-02T02:59:42.363Z,90.52
2024-02-02T03:00:41.833Z,90.62
2024-02-02T03:01:41.646Z,90.62
2024-02-02T03:02:41.625Z,90.52
2024-02-02T03:03:41.695Z,90.52
2024-02-02T03:04:41.606Z,90.52
2024-02-02T03:05:41.683Z,90.52
2024-02-02T03:06:41.679Z,90.52
2024-02-02T03:07:41.599Z,90.52
2024-02-02T03:08:41.592Z,90.52
2024-02-02T03:09:41.556Z,90.52
2024-02-02T03:10:41.659Z,90.62
2024-02-02T03:11:41.546Z,90.72
2024-02-02T03:12:41.537Z,90.62
2024-02-02T03:13:41.524Z,90.72
2024-02-02T03:14:41.495Z,90.83
2024-02-02T03:15:41.614Z,90.93
2024-02-02T03:16:41.513Z,90.83
2024-02-02T03:17:41.540Z,90.72
2024-02-02T03:18:43.565Z,90.62
2024-02-02T03:19:41.557Z,90.62
2024-02-02T03:20:41.484Z,90.62
2024-02-02T03:21:41.481Z,90.62
2024-02-02T03:22:41.479Z,90.52
2024-02-02T03:23:41.421Z,90.52
2024-02-02T03:24:41.399Z,90.52
2024-02-02T03:25:41.411Z,90.52
2024-02-02T03:26:41.390Z,90.41
2024-02-02T03:27:42.558Z,90.41
2024-02-02T03:28:41.343Z,90.41
2024-02-02T03:29:41.338Z,90.41
2024-02-02T03:30:42.287Z,90.41
2024-02-02T03:31:41.624Z,90.52
2024-02-02T03:32:41.437Z,90.62
2024-02-02T03:33:42.404Z,90.52
2024-02-02T03:34:41.363Z,90.52
2024-02-02T03:35:41.317Z,90.62
2024-02-02T03:36:41.250Z,90.62
2024-02-02T03:37:41.305Z,90.62
2024-02-02T03:38:41.344Z,90.62
2024-02-02T03:39:41.269Z,90.62
2024-02-02T03:40:41.223Z,90.62
2024-02-02T03:41:41.234Z,90.72
2024-02-02T03:42:41.185Z,90.72
2024-02-02T03:43:41.201Z,90.72
2024-02-02T03:44:41.194Z,90.83
2024-02-02T03:45:41.263Z,90.83
2024-02-02T03:46:41.179Z,90.83
2024-02-02T03:47:41.274Z,90.93
2024-02-02T03:48:41.209Z,90.93
2024-02-02T03:49:41.184Z,91.03
2024-02-02T03:50:41.149Z,91.14
2024-02-02T03:51:41.110Z,91.14
2024-02-02T03:52:41.116Z,91.24
2024-02-02T03:53:41.109Z,91.24
2024-02-02T03:54:41.078Z,91.24
2024-02-02T03:55:41.095Z,91.45
2024-02-02T03:56:41.077Z,91.45
2024-02-02T03:57:41.068Z,91.55
2024-02-02T03:58:41.067Z,91.55
2024-02-02T03:59:41.096Z,91.66
2024-02-02T04:00:41.146Z,91.66
2024-02-02T04:01:41.027Z,91.66
2024-02-02T04:02:41.083Z,91.62
2024-02-02T04:03:41.229Z,91.76
2024-02-02T04:04:41.019Z,91.52
2024-02-02T04:05:41.130Z,91.41
2024-02-02T04:06:41.105Z,91.52
2024-02-02T04:07:40.969Z,91.52
2024-02-02T04:08:43.918Z,91.52
2024-02-02T04:09:40.955Z,91.52
2024-02-02T04:10:40.993Z,91.41
2024-02-02T04:11:40.922Z,91.41
2024-02-02T04:12:40.930Z,91.20
2024-02-02T04:13:40.894Z,91.10
2024-02-02T04:14:40.880Z,91.10
2024-02-02T04:15:41.278Z,91.00
2024-02-02T04:16:40.867Z,90.89
2024-02-02T04:17:40.875Z,90.79
2024-02-02T04:18:40.970Z,90.79
2024-02-02T04:19:40.879Z,90.69
2024-02-02T04:20:41.771Z,90.69
2024-02-02T04:21:40.824Z,90.69
2024-02-02T04:22:40.794Z,90.79
2024-02-02T04:23:40.782Z,90.79
2024-02-02T04:24:40.880Z,90.69
2024-02-02T04:25:40.777Z,90.58
2024-02-02T04:26:40.795Z,90.58
2024-02-02T04:27:40.810Z,90.58
2024-02-02T04:28:40.752Z,90.69
2024-02-02T04:29:40.719Z,90.79
2024-02-02T04:30:40.765Z,90.69
2024-02-02T04:31:40.724Z,90.58
2024-02-02T04:32:40.793Z,90.64
2024-02-02T04:33:40.861Z,90.64
2024-02-02T04:34:41.148Z,90.54
2024-02-02T04:35:40.664Z,90.54
2024-02-02T04:36:40.738Z,90.54
2024-02-02T04:37:40.642Z,90.44
2024-02-02T04:38:40.675Z,90.33
2024-02-02T04:39:41.272Z,90.44
2024-02-02T04:40:40.646Z,90.44
2024-02-02T04:41:40.639Z,90.54
2024-02-02T04:42:40.612Z,90.54
2024-02-02T04:43:40.649Z,90.54
2024-02-02T04:44:40.622Z,90.64
2024-02-02T04:45:40.633Z,90.64
2024-02-02T04:46:40.566Z,90.64
2024-02-02T04:47:40.563Z,90.64
2024-02-02T04:48:40.663Z,90.75
2024-02-02T04:49:40.611Z,90.75
2024-02-02T04:50:40.519Z,90.75
2024-02-02T04:51:40.596Z,90.85
2024-02-02T04:52:40.477Z,90.95
2024-02-02T04:53:40.486Z,91.06
2024-02-02T04:54:40.497Z,91.06
2024-02-02T04:55:40.490Z,91.16
2024-02-02T04:56:40.440Z,91.16
2024-02-02T04:57:40.754Z,91.16
2024-02-02T04:58:40.444Z,91.27
2024-02-02T04:59:40.464Z,91.37
2024-02-02T05:00:40.454Z,91.37
2024-02-02T05:01:41.294Z,91.47
2024-02-02T05:02:40.437Z,91.58
2024-02-02T05:03:40.402Z,91.58
2024-02-02T05:04:40.399Z,91.68
2024-02-02T05:05:40.351Z,91.78
2024-02-02T05:06:40.432Z,91.78
2024-02-02T05:07:40.376Z,91.99
2024-02-02T05:08:40.354Z,92.10
2024-02-02T05:09:40.364Z,91.99
2024-02-02T05:10:40.300Z,91.99
2024-02-02T05:11:40.295Z,92.10
2024-02-02T05:12:40.464Z,92.10
2024-02-02T05:13:40.289Z,92.10
2024-02-02T05:14:40.793Z,92.10
2024-02-02T05:15:40.333Z,91.99
2024-02-02T05:16:40.257Z,91.99
2024-02-02T05:17:40.870Z,91.99
2024-02-02T05:18:40.377Z,91.78
2024-02-02T05:19:40.367Z,91.74
2024-02-02T05:20:40.433Z,91.74
2024-02-02T05:21:40.261Z,91.74
2024-02-02T05:22:40.821Z,91.64
2024-02-02T05:23:47.142Z,91.64
2024-02-02T05:24:45.361Z,91.64
2024-02-02T05:25:40.236Z,91.64
2024-02-02T05:26:40.194Z,91.64
2024-02-02T05:27:40.230Z,91.64
2024-02-02T05:28:40.800Z,91.74
2024-02-02T05:29:40.166Z,91.74
2024-02-02T05:30:40.120Z,91.74
2024-02-02T05:31:40.144Z,91.74
2024-02-02T05:32:40.169Z,91.74
2024-02-02T05:33:40.262Z,91.64
2024-02-02T05:34:40.261Z,91.64
2024-02-02T05:35:40.164Z,91.64
2024-02-02T05:36:40.089Z,91.64
2024-02-02T05:37:40.113Z,91.74
2024-02-02T05:38:40.045Z,91.85
2024-02-02T05:39:40.089Z,91.85
2024-02-02T05:40:40.028Z,91.85
2024-02-02T05:41:40.015Z,91.85
2024-02-02T05:42:40.045Z,91.99
2024-02-02T05:43:39.997Z,91.99
2024-02-02T05:44:39.945Z,91.99
2024-02-02T05:45:39.956Z,91.95
2024-02-02T05:46:40.266Z,91.99
2024-02-02T05:47:39.980Z,91.99
2024-02-02T05:48:40.015Z,91.99
2024-02-02T05:49:40.162Z,91.99
2024-02-02T05:50:39.934Z,92.10
2024-02-02T05:51:40.033Z,92.20
2024-02-02T05:52:39.889Z,92.26
2024-02-02T05:53:39.859Z,92.51
2024-02-02T05:54:39.899Z,92.41
2024-02-02T05:55:42.637Z,92.30
2024-02-02T05:56:39.852Z,92.20
2024-02-02T05:57:39.902Z,92.05
2024-02-02T05:58:39.821Z,92.10
2024-02-02T05:59:39.849Z,92.10
2024-02-02T06:00:39.871Z,92.10
2024-02-02T06:01:39.900Z,92.10
2024-02-02T06:02:39.794Z,91.95
2024-02-02T06:03:40.021Z,91.95
2024-02-02T06:04:40.008Z,91.85
2024-02-02T06:05:39.758Z,91.85
2024-02-02T06:06:39.901Z,91.74
2024-02-02T06:07:39.743Z,91.74
2024-02-02T06:08:39.713Z,91.64
2024-02-02T06:09:39.896Z,91.64
2024-02-02T06:10:39.721Z,91.53
2024-02-02T06:11:39.688Z,91.64
2024-02-02T06:12:39.675Z,91.64
2024-02-02T06:13:39.667Z,91.64
2024-02-02T06:14:39.647Z,91.64
2024-02-02T06:15:39.775Z,91.74
2024-02-02T06:16:39.657Z,91.64
2024-02-02T06:17:39.668Z,91.74
2024-02-02T06:18:39.726Z,91.74
2024-02-02T06:19:39.666Z,91.74
2024-02-02T06:20:39.630Z,91.64
2024-02-02T06:21:39.642Z,91.74
2024-02-02T06:22:39.574Z,91.74
2024-02-02T06:23:39.566Z,91.64
2024-02-02T06:24:39.851Z,91.64
2024-02-02T06:25:39.567Z,91.64
2024-02-02T06:26:39.529Z,91.53
2024-02-02T06:27:39.564Z,91.53
2024-02-02T06:28:39.528Z,91.43
2024-02-02T06:29:39.496Z,91.43
2024-02-02T06:30:39.575Z,91.43
2024-02-02T06:31:39.653Z,91.43
2024-02-02T06:32:39.489Z,91.43
2024-02-02T06:33:39.527Z,91.43
2024-02-02T06:34:39.472Z,91.53
2024-02-02T06:35:39.476Z,91.22
2024-02-02T06:36:39.561Z,91.12
2024-02-02T06:37:39.467Z,91.12
2024-02-02T06:38:39.506Z,91.02
2024-02-02T06:39:39.467Z,91.02
2024-02-02T06:40:39.421Z,91.12
2024-02-02T06:41:39.409Z,91.12
2024-02-02T06:42:39.424Z,91.02
2024-02-02T06:43:39.344Z,90.77
2024-02-02T06:44:39.362Z,90.77
2024-02-02T06:45:39.444Z,90.56
2024-02-02T06:46:39.363Z,90.45
2024-02-02T06:47:39.341Z,90.35
2024-02-02T06:48:39.381Z,90.35
2024-02-02T06:49:39.296Z,90.35
2024-02-02T06:50:39.288Z,90.45
2024-02-02T06:51:39.387Z,90.35
2024-02-02T06:52:39.286Z,90.35
2024-02-02T06:53:39.270Z,90.35
2024-02-02T06:54:39.420Z,90.35
2024-02-02T06:55:39.363Z,90.35
2024-02-02T06:56:39.224Z,90.35
2024-02-02T06:57:39.217Z,90.45
2024-02-02T06:58:39.203Z,90.45
2024-02-02T06:59:39.258Z,90.35
2024-02-02T07:00:39.229Z,90.25
2024-02-02T07:01:39.229Z,90.04
2024-02-02T07:02:39.163Z,90.14
2024-02-02T07:03:39.258Z,90.25
2024-02-02T07:04:39.229Z,90.25
2024-02-02T07:05:39.193Z,90.14
2024-02-02T07:06:39.224Z,90.14
2024-02-02T07:07:39.198Z,89.94
2024-02-02T07:08:39.106Z,89.94
2024-02-02T07:09:39.192Z,89.94
2024-02-02T07:10:39.178Z,89.83
2024-02-02T07:11:39.078Z,89.79
2024-02-02T07:12:39.204Z,89.69
2024-02-02T07:13:39.046Z,89.79
2024-02-02T07:14:39.102Z,89.69
2024-02-02T07:15:39.107Z,89.58
2024-02-02T07:16:39.050Z,89.69
2024-02-02T07:17:39.042Z,89.89
2024-02-02T07:18:39.192Z,89.89
2024-02-02T07:19:39.121Z,89.89
2024-02-02T07:20:39.782Z,89.89
2024-02-02T07:21:39.092Z,89.79
2024-02-02T07:22:38.997Z,89.83
2024-02-02T07:23:38.935Z,89.79
2024-02-02T07:24:39.024Z,89.89
2024-02-02T07:25:38.949Z,89.89
2024-02-02T07:26:38.937Z,89.89
2024-02-02T07:27:38.982Z,90.00
2024-02-02T07:28:38.911Z,90.00
2024-02-02T07:29:38.855Z,90.00
2024-02-02T07:30:38.949Z,90.10
2024-02-02T07:31:38.947Z,90.00
2024-02-02T07:32:38.955Z,89.89
2024-02-02T07:33:39.042Z,89.89
2024-02-02T07:34:39.009Z,90.00
2024-02-02T07:35:38.844Z,90.20
2024-02-02T07:36:39.052Z,90.20
2024-02-02T07:37:38.896Z,90.20
2024-02-02T07:38:38.780Z,90.25
2024-02-02T07:39:38.795Z,90.20
2024-02-02T07:40:38.822Z,90.20
2024-02-02T07:41:38.754Z,90.35
2024-02-02T07:42:47.788Z,90.31
2024-02-02T07:43:38.825Z,90.41
2024-02-02T07:44:38.742Z,90.41
2024-02-02T07:45:38.737Z,90.41
2024-02-02T07:46:38.733Z,90.52
2024-02-02T07:47:38.712Z,90.31
2024-02-02T07:48:38.897Z,90.31
2024-02-02T07:49:38.952Z,90.20
2024-02-02T07:50:38.685Z,90.20
2024-02-02T07:51:39.109Z,90.31
2024-02-02T07:52:38.715Z,90.20
2024-02-02T07:53:38.633Z,90.20
2024-02-02T07:54:38.991Z,90.31
2024-02-02T07:55:38.626Z,90.31
2024-02-02T07:56:38.652Z,90.31
2024-02-02T07:57:38.721Z,90.20
2024-02-02T07:58:38.668Z,90.31
2024-02-02T07:59:38.631Z,90.31
2024-02-02T08:00:38.713Z,90.41
2024-02-02T08:01:38.695Z,90.41
2024-02-02T08:02:38.638Z,90.41
2024-02-02T08:03:38.802Z,90.31
2024-02-02T08:04:38.711Z,90.31
2024-02-02T08:05:38.608Z,90.31
2024-02-02T08:06:38.629Z,90.20
2024-02-02T08:07:39.294Z,90.26
2024-02-02T08:08:38.531Z,90.16
2024-02-02T08:09:38.589Z,90.26
2024-02-02T08:10:38.558Z,90.26
2024-02-02T08:11:38.446Z,90.26
2024-02-02T08:12:38.576Z,90.26
2024-02-02T08:13:38.443Z,90.47
2024-02-02T08:14:38.414Z,90.47
2024-02-02T08:15:38.541Z,90.58
2024-02-02T08:16:38.536Z,90.58
2024-02-02T08:17:38.427Z,90.68
2024-02-02T08:18:38.551Z,90.78
2024-02-02T08:19:39.170Z,90.78
2024-02-02T08:20:38.348Z,90.89
2024-02-02T08:21:38.418Z,90.99
2024-02-02T08:22:38.325Z,91.09
2024-02-02T08:23:38.313Z,91.20
2024-02-02T08:24:38.342Z,91.30
2024-02-02T08:25:38.302Z,91.41
2024-02-02T08:26:38.340Z,91.41
2024-02-02T08:27:38.333Z,91.51
2024-02-02T08:28:45.572Z,91.61
2024-02-02T08:29:38.309Z,91.72
2024-02-02T08:30:38.380Z,91.82
2024-02-02T08:31:38.260Z,91.72
2024-02-02T08:32:38.292Z,91.82
2024-02-02T08:33:38.249Z,92.03
2024-02-02T08:34:38.349Z,92.13
2024-02-02T08:35:38.217Z,92.24
2024-02-02T08:36:38.250Z,92.24
2024-02-02T08:37:38.174Z,92.34
2024-02-02T08:38:38.168Z,92.44
2024-02-02T08:39:38.241Z,92.44
2024-02-02T08:40:38.170Z,92.55
2024-02-02T08:41:38.225Z,92.65
2024-02-02T08:42:38.263Z,92.76
2024-02-02T08:43:38.107Z,92.85
2024-02-02T08:44:38.111Z,92.96
2024-02-02T08:45:38.141Z,92.85
2024-02-02T08:46:38.137Z,92.85
2024-02-02T08:47:38.137Z,92.96
2024-02-02T08:48:38.125Z,92.96
2024-02-02T08:49:38.100Z,92.96
2024-02-02T08:50:38.126Z,93.06
2024-02-02T08:51:39.360Z,93.27
2024-02-02T08:52:38.051Z,93.37
2024-02-02T08:53:38.008Z,93.58
2024-02-02T08:54:38.739Z,93.58
2024-02-02T08:55:38.008Z,93.58
2024-02-02T08:56:37.995Z,93.58
2024-02-02T08:57:38.058Z,93.68
2024-02-02T08:58:39.209Z,93.99
2024-02-02T08:59:38.006Z,94.10
2024-02-02T09:00:38.016Z,94.10
2024-02-02T09:01:38.041Z,94.20
2024-02-02T09:02:38.045Z,94.41
2024-02-02T09:03:38.051Z,94.41
2024-02-02T09:04:37.919Z,94.62
2024-02-02T09:05:37.905Z,94.62
2024-02-02T09:06:38.013Z,94.72
2024-02-02T09:07:37.873Z,94.82
2024-02-02T09:08:37.859Z,94.82
2024-02-02T09:09:37.926Z,94.93
2024-02-02T09:10:37.928Z,95.03
2024-02-02T09:11:37.903Z,95.14
2024-02-02T09:12:37.891Z,95.14
2024-02-02T09:13:38.810Z,95.24
2024-02-02T09:14:37.799Z,95.24
2024-02-02T09:15:37.829Z,95.24
2024-02-02T09:16:37.792Z,95.19
2024-02-02T09:17:37.813Z,95.19
2024-02-02T09:18:37.842Z,94.98
2024-02-02T09:19:37.847Z,94.32
2024-02-02T09:20:37.718Z,93.45
2024-02-02T09:21:37.827Z,93.04
2024-02-02T09:22:37.739Z,92.58
2024-02-02T09:23:37.705Z,91.96
2024-02-02T09:24:37.764Z,91.86
2024-02-02T09:25:37.736Z,91.40
2024-02-02T09:26:37.674Z,90.68
2024-02-02T09:27:37.790Z,90.37
2024-02-02T09:28:37.685Z,90.37
2024-02-02T09:29:37.889Z,91.13
2024-02-02T09:30:37.662Z,91.61
2024-02-02T09:31:37.682Z,91.30
2024-02-02T09:32:37.673Z,90.68
2024-02-02T09:33:37.713Z,90.12
2024-02-02T09:34:37.830Z,89.81
2024-02-02T09:35:37.583Z,89.50
2024-02-02T09:36:37.844Z,89.77
2024-02-02T09:37:37.549Z,89.67
2024-02-02T09:38:37.568Z,89.25
2024-02-02T09:39:37.690Z,89.15
2024-02-02T09:40:37.566Z,88.80
2024-02-02T09:41:37.510Z,88.49
2024-02-02T09:42:38.402Z,88.29
2024-02-02T09:43:37.499Z,87.93
2024-02-02T09:44:37.476Z,87.32
2024-02-02T09:45:37.599Z,87.21
2024-02-02T09:46:37.512Z,87.26
2024-02-02T09:47:37.586Z,87.56
2024-02-02T09:48:37.618Z,87.98
2024-02-02T09:49:37.644Z,87.42
2024-02-02T09:50:37.500Z,87.11
2024-02-02T09:51:37.439Z,87.32
2024-02-02T09:52:37.445Z,86.60
2024-02-02T09:53:37.412Z,86.39
2024-02-02T09:54:37.471Z,86.55
2024-02-02T09:55:37.354Z,86.45
2024-02-02T09:56:37.345Z,86.45
2024-02-02T09:57:37.350Z,86.76
2024-02-02T09:58:37.363Z,86.45
2024-02-02T09:59:37.366Z,86.35
2024-02-02T10:00:37.399Z,86.45
2024-02-02T10:01:37.329Z,86.31
2024-02-02T10:02:37.308Z,85.79
2024-02-02T10:03:37.418Z,86.04
2024-02-02T10:04:37.331Z,86.80
2024-02-02T10:05:37.279Z,87.21
2024-02-02T10:06:37.392Z,87.83
2024-02-02T10:07:37.248Z,87.52
2024-02-02T10:08:37.261Z,87.48
2024-02-02T10:09:37.285Z,86.52
2024-02-02T10:10:37.260Z,85.75
2024-02-02T10:11:37.226Z,85.14
2024-02-02T10:12:37.199Z,84.38
2024-02-02T10:13:37.200Z,84.48
2024-02-02T10:14:37.184Z,84.27
2024-02-02T10:15:37.220Z,84.62
2024-02-02T10:16:37.159Z,84.62
2024-02-02T10:17:37.386Z,84.11
2024-02-02T10:18:37.280Z,84.11
2024-02-02T10:19:37.265Z,84.66
2024-02-02T10:20:37.111Z,84.66
2024-02-02T10:21:37.138Z,84.66
2024-02-02T10:22:37.383Z,85.28
2024-02-02T10:23:37.121Z,85.07
2024-02-02T10:24:37.114Z,84.77
2024-02-02T10:25:37.308Z,84.77
2024-02-02T10:26:37.049Z,84.77
2024-02-02T10:27:37.067Z,84.77
2024-02-02T10:28:37.028Z,84.35
2024-02-02T10:29:37.022Z,84.14
2024-02-02T10:30:37.154Z,83.90
2024-02-02T10:31:37.082Z,83.49
2024-02-02T10:32:37.127Z,83.28
2024-02-02T10:33:37.144Z,83.18
2024-02-02T10:34:38.080Z,82.42
2024-02-02T10:35:37.007Z,82.05
2024-02-02T10:36:37.003Z,82.35
2024-02-02T10:37:38.684Z,82.32
2024-02-02T10:38:36.977Z,82.15
2024-02-02T10:39:36.977Z,82.87
2024-02-02T10:40:36.915Z,83.07
2024-02-02T10:41:38.865Z,83.07
2024-02-02T10:42:36.976Z,83.18
2024-02-02T10:43:36.935Z,82.93
2024-02-02T11:18:06.542Z,80.02
2024-02-02T11:19:07.366Z,79.57
2024-02-02T11:20:08.112Z,79.88
2024-02-02T11:21:07.274Z,79.67
2024-02-02T11:22:07.300Z,79.67
2024-02-02T11:23:07.241Z,78.96
2024-02-02T11:24:07.277Z,79.16
2024-02-02T11:25:07.219Z,79.36
2024-02-02T11:26:07.291Z,79.05
2024-02-02T11:27:07.211Z,79.02
2024-02-02T11:28:07.185Z,78.50
2024-02-02T11:29:07.150Z,78.20
2024-02-02T11:30:07.752Z,77.99
2024-02-02T11:31:07.157Z,77.89
2024-02-02T11:32:07.147Z,78.09
2024-02-02T11:33:07.298Z,78.44
2024-02-02T11:34:07.171Z,78.61
2024-02-02T11:35:07.089Z,78.09
2024-02-02T11:36:07.215Z,77.68
2024-02-02T11:37:07.100Z,77.58
2024-02-02T11:38:07.106Z,77.48
2024-02-02T11:39:07.098Z,77.58
2024-02-02T11:40:07.090Z,77.58
2024-02-02T11:41:07.041Z,77.89
2024-02-02T11:42:07.119Z,77.68
2024-02-02T11:43:07.014Z,77.68
2024-02-02T11:44:07.004Z,77.58
2024-02-02T11:45:07.091Z,77.68
2024-02-02T11:46:09.360Z,77.82
2024-02-02T11:47:06.983Z,77.89
2024-02-02T11:48:07.087Z,77.78
2024-02-02T11:49:07.461Z,77.78
2024-02-02T11:50:07.036Z,77.99
2024-02-02T11:51:06.962Z,78.09
2024-02-02T11:52:06.956Z,77.89
2024-02-02T11:53:06.936Z,77.65
2024-02-02T11:54:06.949Z,77.23
2024-02-02T11:55:06.930Z,76.82
2024-02-02T11:56:06.906Z,76.93
2024-02-02T11:57:06.893Z,76.89
2024-02-02T11:58:06.875Z,76.38
2024-02-02T11:59:06.862Z,75.87
2024-02-02T12:00:07.001Z,75.45
2024-02-02T12:01:06.855Z,75.66
2024-02-02T12:02:06.833Z,75.87
2024-02-02T12:03:06.859Z,75.76
2024-02-02T12:04:06.794Z,75.87
2024-02-02T12:05:06.989Z,75.04
2024-02-02T12:06:06.842Z,75.04
2024-02-02T12:07:06.864Z,74.63
2024-02-02T12:08:06.788Z,74.63
2024-02-02T12:09:06.857Z,74.40
2024-02-02T12:10:06.853Z,74.29
2024-02-02T12:11:06.864Z,74.32
2024-02-02T12:12:06.797Z,74.53
2024-02-02T12:13:06.707Z,74.74
2024-02-02T12:14:06.808Z,74.60
2024-02-02T12:15:06.829Z,73.98
2024-02-02T12:16:06.706Z,74.29
2024-02-02T12:17:06.743Z,74.57
2024-02-02T12:18:06.766Z,74.66
2024-02-02T12:19:06.776Z,74.36
2024-02-02T12:20:06.755Z,74.15
2024-02-02T12:21:06.676Z,73.74
2024-02-02T12:22:06.648Z,73.64
2024-02-02T12:23:06.605Z,74.29
2024-02-02T12:24:06.686Z,74.70
2024-02-02T12:25:06.627Z,74.91
2024-02-02T12:26:06.602Z,74.70
2024-02-02T12:27:06.591Z,74.66
2024-02-02T12:28:06.587Z,74.36
2024-02-02T12:29:06.543Z,74.46
2024-02-02T12:30:06.651Z,74.46
2024-02-02T12:31:06.550Z,74.26
2024-02-02T12:32:06.595Z,74.36
2024-02-02T12:33:06.588Z,74.36
2024-02-02T12:34:06.638Z,74.40
2024-02-02T12:35:06.779Z,74.66
2024-02-02T12:36:10.254Z,74.60
2024-02-02T12:37:06.498Z,74.80
2024-02-02T12:38:06.459Z,74.70
2024-02-02T12:39:06.701Z,74.80
2024-02-02T12:40:06.438Z,74.57
2024-02-02T12:41:06.645Z,74.36
2024-02-02T12:42:07.616Z,73.95
2024-02-02T12:43:06.391Z,73.85
2024-02-02T12:44:06.546Z,73.95
2024-02-02T12:45:06.409Z,74.36
2024-02-02T12:46:06.373Z,74.36
2024-02-02T12:47:06.373Z,74.26
2024-02-02T12:48:06.602Z,73.85
2024-02-02T12:49:06.552Z,73.95
2024-02-02T12:50:06.471Z,73.50
2024-02-02T12:51:06.363Z,73.40
2024-02-02T12:52:06.310Z,72.78
2024-02-02T12:53:06.326Z,72.48
2024-02-02T12:54:06.404Z,72.07
2024-02-02T12:55:06.273Z,71.86
2024-02-02T12:56:06.309Z,71.73
2024-02-02T12:57:06.317Z,71.04
2024-02-02T12:58:06.256Z,71.11
2024-02-02T12:59:06.247Z,70.70
2024-02-02T13:00:06.265Z,70.29
2024-02-02T13:01:06.313Z,69.89
2024-02-02T13:02:06.216Z,70.19
2024-02-02T13:03:06.233Z,70.40
2024-02-02T13:04:06.330Z,70.40
2024-02-02T13:05:06.202Z,70.36
2024-02-02T13:06:06.182Z,69.95
2024-02-02T13:07:06.331Z,70.09
2024-02-02T13:08:06.173Z,69.95
2024-02-02T13:09:06.162Z,69.65
2024-02-02T13:10:06.221Z,69.44
2024-02-02T13:11:06.269Z,69.13
2024-02-02T13:12:06.148Z,69.24
2024-02-02T13:13:06.136Z,68.32
2024-02-02T13:14:06.155Z,67.80
2024-02-02T13:15:06.106Z,67.90
2024-02-02T13:16:06.071Z,68.11
2024-02-02T13:17:06.078Z,67.80
2024-02-02T13:18:06.174Z,67.80
2024-02-02T13:19:07.574Z,67.80
2024-02-02T13:20:06.021Z,68.01
2024-02-02T13:21:06.045Z,67.70
2024-02-02T13:22:07.532Z,67.67
2024-02-02T13:23:06.037Z,67.05
2024-02-02T13:24:06.029Z,67.05
2024-02-02T13:25:05.960Z,66.95
2024-02-02T13:26:05.967Z,66.85